createdAt,value
2023-03-29T00:01:00.212Z,84.90
2023-03-29T00:02:02.207Z,85.28
2023-03-29T00:03:04.425Z,85.25
2023-03-29T00:04:06.510Z,86.02
2023-03-29T00:05:09.906Z,86.05
2023-03-29T00:06:15.207Z,86.12
2023-03-29T00:07:16.631Z,86.13
2023-03-29T00:08:18.555Z,85.86
2023-03-29T00:09:20.109Z,86.01
2023-03-29T00:10:25.248Z,86.30
2023-03-29T00:11:27.605Z,86.52
2023-03-29T00:12:29.086Z,86.51
2023-03-29T00:13:32.724Z,86.94
2023-03-29T00:14:34.209Z,86.87
2023-03-29T00:15:41.028Z,86.46
2023-03-29T00:16:44.822Z,86.70
2023-03-29T00:17:46.357Z,86.80
2023-03-29T00:18:47.862Z,87.25
2023-03-29T00:19:49.303Z,87.20
2023-03-29T00:20:56.491Z,87.12
2023-03-29T00:21:57.879Z,87.05
2023-03-29T00:23:00.821Z,87.09
2023-03-29T00:24:02.310Z,86.76
2023-03-29T00:25:04.348Z,86.64
2023-03-29T00:26:08.152Z,86.55
2023-03-29T00:27:09.873Z,86.42
2023-03-29T00:28:13.813Z,86.46
2023-03-29T00:29:15.962Z,86.73
2023-03-29T00:30:17.457Z,86.91
2023-03-29T00:31:18.964Z,86.59
2023-03-29T00:32:20.551Z,87.05
2023-03-29T00:33:22.786Z,87.20
2023-03-29T00:34:26.243Z,86.95
2023-03-29T00:35:27.802Z,87.15
2023-03-29T00:36:29.215Z,87.16
2023-03-29T00:37:31.134Z,87.29
2023-03-29T00:38:34.897Z,87.91
2023-03-29T00:39:36.820Z,87.84
2023-03-29T00:40:42.601Z,87.69
2023-03-29T00:41:44.812Z,87.40
2023-03-29T00:42:46.848Z,87.02
2023-03-29T00:43:52.376Z,86.85
2023-03-29T00:44:59.460Z,87.02
2023-03-29T00:46:03.665Z,87.38
2023-03-29T00:47:05.152Z,87.58
2023-03-29T00:48:08.513Z,87.19
2023-03-29T00:49:13.514Z,87.26
2023-03-29T00:50:18.384Z,87.41
2023-03-29T00:51:21.638Z,87.84
2023-03-29T00:52:24.311Z,87.70
2023-03-29T00:53:39.351Z,87.25
2023-03-29T00:54:45.898Z,87.42
2023-03-29T00:55:47.552Z,87.92
2023-03-29T00:56:52.596Z,88.12
2023-03-29T00:57:58.604Z,88.77
2023-03-29T00:59:04.387Z,88.60
2023-03-29T01:00:10.007Z,88.60
2023-03-29T01:01:17.485Z,88.57
2023-03-29T01:02:25.920Z,88.68
2023-03-29T01:03:30.301Z,88.43
2023-03-29T01:04:36.920Z,88.53
2023-03-29T01:05:40.618Z,88.55
2023-03-29T01:06:44.661Z,88.32
2023-03-29T01:07:53.676Z,88.57
2023-03-29T01:08:58.449Z,88.31
2023-03-29T01:10:15.895Z,88.28
2023-03-29T01:11:18.800Z,88.24
2023-03-29T01:12:25.439Z,88.32
2023-03-29T01:13:46.177Z,88.36
2023-03-29T01:14:54.355Z,88.37
2023-03-29T01:15:57.459Z,88.49
2023-03-29T01:16:59.413Z,89.29
2023-03-29T01:18:04.181Z,89.58
2023-03-29T01:19:13.900Z,90.13
2023-03-29T01:20:22.188Z,90.41
2023-03-29T01:21:27.902Z,90.38
2023-03-29T01:22:45.347Z,90.02
2023-03-29T01:23:52.593Z,89.43
2023-03-29T01:25:13.167Z,89.11
2023-03-29T01:26:24.907Z,88.79
2023-03-29T01:27:38.864Z,89.07
2023-03-29T01:28:45.507Z,89.30
2023-03-29T01:29:50.185Z,89.22
2023-03-29T01:30:53.354Z,89.31
2023-03-29T01:31:58.028Z,89.11
2023-03-29T01:33:06.248Z,88.62
2023-03-29T01:34:11.648Z,88.20
2023-03-29T01:35:15.857Z,88.31
2023-03-29T01:36:23.924Z,88.22
2023-03-29T01:37:38.767Z,87.97
2023-03-29T01:38:41.477Z,88.15
2023-03-29T01:39:42.964Z,88.59
2023-03-29T01:40:45.886Z,88.83
2023-03-29T01:42:02.537Z,88.53
2023-03-29T01:43:22.896Z,88.33
2023-03-29T01:44:31.654Z,88.36
2023-03-29T01:45:50.448Z,88.19
2023-03-29T01:46:55.958Z,88.38
2023-03-29T01:47:57.858Z,88.56
2023-03-29T01:49:03.928Z,88.68
2023-03-29T01:50:15.555Z,88.28
2023-03-29T01:51:26.543Z,88.16
2023-03-29T01:52:32.221Z,89.03
2023-03-29T01:53:42.902Z,89.07
2023-03-29T01:54:51.980Z,88.86
2023-03-29T01:55:59.045Z,88.48
2023-03-29T01:57:01.085Z,88.74
2023-03-29T01:58:03.893Z,88.49
2023-03-29T01:59:15.957Z,89.25
2023-03-29T02:00:19.574Z,89.17
2023-03-29T02:01:28.917Z,89.17
2023-03-29T02:02:31.681Z,89.45
2023-03-29T02:03:42.674Z,89.18
2023-03-29T02:04:50.224Z,89.74
2023-03-29T02:05:53.801Z,89.68
2023-03-29T02:06:58.012Z,89.78
2023-03-29T02:08:05.029Z,89.62
2023-03-29T02:09:10.618Z,89.04
2023-03-29T02:10:13.254Z,89.20
2023-03-29T02:11:16.484Z,89.01
2023-03-29T02:12:18.563Z,88.87
2023-03-29T02:13:20.603Z,89.53
2023-03-29T02:14:25.048Z,89.35
2023-03-29T02:15:30.255Z,89.58
2023-03-29T02:16:38.905Z,89.24
2023-03-29T02:17:40.842Z,89.68
2023-03-29T02:18:44.590Z,89.59
2023-03-29T02:19:50.156Z,89.56
2023-03-29T02:20:56.208Z,89.33
2023-03-29T02:22:04.667Z,88.98
2023-03-29T02:23:06.217Z,88.33
2023-03-29T02:24:09.315Z,88.49
2023-03-29T02:25:14.437Z,88.26
2023-03-29T02:26:17.968Z,88.37
2023-03-29T02:27:23.056Z,88.41
2023-03-29T02:28:26.272Z,88.56
2023-03-29T02:29:30.996Z,88.04
2023-03-29T02:30:39.055Z,88.34
2023-03-29T02:31:55.258Z,88.27
2023-03-29T02:33:07.331Z,88.65
2023-03-29T02:34:21.229Z,88.48
2023-03-29T02:35:28.961Z,88.25
2023-03-29T02:36:50.783Z,87.79
2023-03-29T02:37:54.770Z,88.24
2023-03-29T02:38:58.646Z,88.68
2023-03-29T02:40:00.455Z,88.41
2023-03-29T02:41:03.064Z,88.24
2023-03-29T02:42:07.966Z,88.16
2023-03-29T02:43:13.668Z,88.08
2023-03-29T02:44:20.403Z,88.23
2023-03-29T02:45:28.067Z,88.02
2023-03-29T02:46:29.844Z,88.08
2023-03-29T02:47:34.898Z,88.03
2023-03-29T02:48:49.061Z,87.61
2023-03-29T02:49:50.854Z,87.72
2023-03-29T02:50:54.918Z,87.80
2023-03-29T02:51:59.196Z,87.98
2023-03-29T02:53:04.806Z,87.88
2023-03-29T02:54:29.781Z,88.23
2023-03-29T02:55:34.680Z,88.08
2023-03-29T02:56:46.410Z,88.10
2023-03-29T02:57:49.279Z,87.87
2023-03-29T02:58:50.744Z,87.97
2023-03-29T02:59:54.221Z,88.06
2023-03-29T03:00:56.444Z,88.05
2023-03-29T03:02:00.982Z,87.86
2023-03-29T03:03:04.541Z,88.09
2023-03-29T03:04:06.240Z,88.33
2023-03-29T03:05:10.837Z,88.87
2023-03-29T03:06:14.101Z,89.21
2023-03-29T03:07:15.484Z,89.06
2023-03-29T03:08:17.023Z,89.15
2023-03-29T03:09:19.218Z,89.15
2023-03-29T03:10:22.220Z,89.07
2023-03-29T03:11:24.093Z,89.26
2023-03-29T03:12:25.800Z,88.76
2023-03-29T03:13:29.710Z,88.84
2023-03-29T03:14:31.270Z,88.43
2023-03-29T03:15:35.885Z,88.92
2023-03-29T03:16:37.621Z,89.17
2023-03-29T03:17:40.039Z,89.30
2023-03-29T03:18:41.968Z,88.92
2023-03-29T03:19:43.933Z,88.66
2023-03-29T03:20:56.368Z,88.83
2023-03-29T03:21:58.290Z,89.32
2023-03-29T03:23:02.014Z,89.35
2023-03-29T03:24:11.174Z,89.57
2023-03-29T03:25:16.792Z,89.62
2023-03-29T03:26:18.920Z,89.39
2023-03-29T03:27:21.221Z,89.22
2023-03-29T03:28:24.477Z,89.17
2023-03-29T03:29:26.307Z,89.03
2023-03-29T03:31:00.021Z,88.70
2023-03-29T03:32:36.715Z,89.51
2023-03-29T03:34:01.322Z,89.47
2023-03-29T03:35:24.579Z,89.29
2023-03-29T03:36:29.146Z,88.89
2023-03-29T03:37:31.766Z,88.83
2023-03-29T03:38:36.242Z,88.85
2023-03-29T03:39:38.896Z,88.76
2023-03-29T03:40:43.433Z,88.65
2023-03-29T03:41:45.978Z,88.55
2023-03-29T03:42:47.605Z,88.42
2023-03-29T03:43:50.562Z,88.34
2023-03-29T03:44:52.087Z,88.36
2023-03-29T03:46:14.132Z,88.45
2023-03-29T03:47:16.152Z,88.29
2023-03-29T03:48:39.828Z,88.53
2023-03-29T03:50:02.879Z,88.39
2023-03-29T03:51:05.909Z,88.33
2023-03-29T03:52:10.232Z,88.42
2023-03-29T03:53:11.864Z,88.17
2023-03-29T03:54:43.838Z,87.91
2023-03-29T03:56:09.309Z,87.82
2023-03-29T03:57:25.178Z,87.66
2023-03-29T03:58:28.866Z,87.48
2023-03-29T03:59:30.872Z,87.52
2023-03-29T04:00:40.354Z,87.73
2023-03-29T04:02:06.918Z,87.20
2023-03-29T04:03:11.239Z,87.25
2023-03-29T04:04:13.363Z,87.26
2023-03-29T04:05:25.453Z,87.71
2023-03-29T04:06:30.509Z,87.22
2023-03-29T04:07:50.451Z,87.46
2023-03-29T04:10:56.744Z,87.72
2023-03-29T04:12:04.191Z,87.40
2023-03-29T04:13:05.852Z,87.54
2023-03-29T04:14:16.259Z,87.67
2023-03-29T04:15:41.255Z,87.62
2023-03-29T04:16:47.774Z,87.67
2023-03-29T04:18:12.665Z,87.73
2023-03-29T04:19:19.404Z,87.37
2023-03-29T04:20:27.157Z,87.44
2023-03-29T04:21:30.864Z,87.58
2023-03-29T04:22:32.912Z,87.63
2023-03-29T04:23:36.231Z,87.53
2023-03-29T04:24:37.792Z,87.29
2023-03-29T04:26:02.319Z,87.00
2023-03-29T04:27:25.053Z,87.17
2023-03-29T04:28:26.544Z,87.32
2023-03-29T04:29:41.548Z,87.51
2023-03-29T04:30:53.371Z,87.09
2023-03-29T04:32:06.128Z,87.38
2023-03-29T04:33:19.862Z,87.58
2023-03-29T04:34:28.778Z,87.53
2023-03-29T04:35:31.050Z,87.55
2023-03-29T04:36:32.957Z,87.74
2023-03-29T04:37:41.794Z,87.84
2023-03-29T04:38:47.745Z,87.58
2023-03-29T04:39:52.680Z,87.43
2023-03-29T04:40:55.192Z,87.75
2023-03-29T04:42:16.286Z,87.26
2023-03-29T04:43:20.599Z,87.35
2023-03-29T04:44:34.109Z,87.60
2023-03-29T04:45:39.097Z,88.07
2023-03-29T04:46:51.421Z,88.06
2023-03-29T04:47:54.076Z,88.03
2023-03-29T04:48:55.694Z,88.14
2023-03-29T04:50:10.009Z,87.99
2023-03-29T04:51:16.413Z,88.27
2023-03-29T04:52:24.293Z,87.91
2023-03-29T04:53:28.936Z,88.05
2023-03-29T04:54:30.819Z,88.10
2023-03-29T04:55:50.980Z,87.80
2023-03-29T04:57:11.143Z,87.75
2023-03-29T04:58:24.419Z,87.91
2023-03-29T04:59:28.853Z,87.57
2023-03-29T05:00:39.829Z,87.45
2023-03-29T05:01:56.592Z,87.39
2023-03-29T05:03:01.959Z,87.21
2023-03-29T05:04:07.275Z,87.46
2023-03-29T05:06:18.020Z,87.59
2023-03-29T05:07:19.836Z,87.26
2023-03-29T05:08:21.987Z,87.44
2023-03-29T05:09:49.649Z,87.12
2023-03-29T05:10:51.443Z,87.31
2023-03-29T05:11:53.677Z,87.13
2023-03-29T05:12:56.952Z,87.59
2023-03-29T05:14:03.584Z,87.57
2023-03-29T05:15:10.948Z,87.38
2023-03-29T05:16:12.778Z,87.32
2023-03-29T05:17:17.136Z,87.75
2023-03-29T05:18:19.953Z,87.61
2023-03-29T05:19:25.408Z,87.57
2023-03-29T05:20:27.375Z,87.11
2023-03-29T05:21:33.618Z,87.01
2023-03-29T05:22:40.346Z,86.96
2023-03-29T05:23:48.225Z,86.96
2023-03-29T05:24:57.519Z,87.03
2023-03-29T05:26:01.653Z,86.63
2023-03-29T05:27:04.046Z,87.21
2023-03-29T05:28:09.679Z,86.97
2023-03-29T05:29:15.941Z,87.32
2023-03-29T05:30:20.567Z,88.01
2023-03-29T05:31:32.744Z,88.03
2023-03-29T05:32:38.149Z,87.54
2023-03-29T05:33:41.177Z,87.78
2023-03-29T05:34:43.780Z,87.72
2023-03-29T05:35:46.359Z,87.58
2023-03-29T05:36:49.106Z,87.58
2023-03-29T05:37:51.304Z,87.18
2023-03-29T05:38:52.838Z,87.34
2023-03-29T05:40:05.940Z,87.65
2023-03-29T05:41:13.177Z,87.66
2023-03-29T05:42:35.964Z,88.01
2023-03-29T05:43:42.034Z,88.31
2023-03-29T05:44:44.291Z,87.80
2023-03-29T05:45:53.646Z,87.81
2023-03-29T05:46:59.875Z,88.04
2023-03-29T05:48:01.938Z,88.03
2023-03-29T05:49:04.509Z,87.72
2023-03-29T05:50:30.222Z,87.94
2023-03-29T05:51:33.383Z,87.87
2023-03-29T05:52:35.055Z,88.04
2023-03-29T05:53:37.807Z,87.80
2023-03-29T05:54:42.605Z,87.76
2023-03-29T05:55:46.725Z,87.87
2023-03-29T05:56:51.230Z,87.93
2023-03-29T05:57:52.742Z,87.75
2023-03-29T05:59:02.226Z,87.98
2023-03-29T06:00:15.746Z,87.80
2023-03-29T06:01:19.990Z,87.78
2023-03-29T06:02:36.665Z,87.79
2023-03-29T06:03:39.170Z,87.74
2023-03-29T06:04:40.865Z,87.80
2023-03-29T06:06:05.496Z,88.15
2023-03-29T06:07:10.283Z,88.60
2023-03-29T06:08:12.658Z,88.51
2023-03-29T06:09:30.577Z,88.32
2023-03-29T06:10:37.497Z,88.69
2023-03-29T06:12:02.487Z,88.71
2023-03-29T06:13:13.861Z,88.83
2023-03-29T06:14:15.643Z,88.70
2023-03-29T06:15:24.364Z,88.38
2023-03-29T06:16:30.729Z,88.10
2023-03-29T06:17:36.089Z,87.70
2023-03-29T06:18:40.300Z,87.51
2023-03-29T06:19:42.850Z,87.68
2023-03-29T06:20:51.954Z,87.44
2023-03-29T06:21:54.509Z,87.62
2023-03-29T06:23:00.036Z,87.98
2023-03-29T06:24:03.663Z,87.86
2023-03-29T06:25:12.512Z,87.55
2023-03-29T06:26:16.400Z,87.47
2023-03-29T06:27:19.184Z,87.33
2023-03-29T06:28:21.538Z,87.38
2023-03-29T06:29:30.959Z,87.04
2023-03-29T06:30:32.965Z,86.96
2023-03-29T06:31:36.347Z,87.47
2023-03-29T06:32:39.674Z,87.46
2023-03-29T06:33:50.263Z,87.56
2023-03-29T06:35:11.714Z,86.69
2023-03-29T06:36:16.294Z,86.85
2023-03-29T06:37:21.428Z,87.36
2023-03-29T06:38:30.888Z,87.37
2023-03-29T06:40:06.962Z,87.23
2023-03-29T06:41:26.718Z,87.19
2023-03-29T06:42:41.891Z,87.24
2023-03-29T06:44:03.975Z,87.09
2023-03-29T06:45:10.530Z,87.40
2023-03-29T06:46:14.311Z,87.16
2023-03-29T06:47:32.608Z,87.29
2023-03-29T06:48:34.475Z,87.17
2023-03-29T06:49:36.144Z,87.54
2023-03-29T06:50:56.896Z,87.50
2023-03-29T06:52:01.354Z,87.44
2023-03-29T06:53:04.848Z,87.14
2023-03-29T06:54:09.500Z,86.78
2023-03-29T06:55:16.466Z,86.87
2023-03-29T06:56:17.969Z,86.79
2023-03-29T06:57:24.434Z,87.23
2023-03-29T06:58:33.574Z,87.24
2023-03-29T06:59:49.488Z,87.27
2023-03-29T07:01:00.384Z,87.26
2023-03-29T07:02:12.541Z,86.99
2023-03-29T07:03:30.321Z,87.07
2023-03-29T07:04:32.639Z,86.98
2023-03-29T07:05:44.932Z,87.19
2023-03-29T07:07:02.492Z,87.16
2023-03-29T07:08:15.324Z,86.93
2023-03-29T07:09:33.811Z,86.82
2023-03-29T07:10:52.878Z,86.46
2023-03-29T07:12:14.058Z,86.51
2023-03-29T07:13:16.237Z,86.11
2023-03-29T07:14:18.496Z,86.26
2023-03-29T07:15:21.478Z,86.22
2023-03-29T07:16:47.234Z,86.62
2023-03-29T07:17:53.989Z,86.68
2023-03-29T07:18:55.720Z,86.48
2023-03-29T07:20:19.720Z,86.26
2023-03-29T07:21:24.676Z,86.26
2023-03-29T07:22:26.123Z,86.43
2023-03-29T07:23:33.730Z,86.31
2023-03-29T07:24:35.259Z,85.98
2023-03-29T07:25:37.439Z,85.62
2023-03-29T07:26:49.208Z,85.70
2023-03-29T07:27:59.901Z,85.79
2023-03-29T07:29:01.531Z,85.65
2023-03-29T07:30:09.752Z,85.60
2023-03-29T07:31:17.467Z,85.86
2023-03-29T07:32:26.065Z,85.86
2023-03-29T07:33:40.078Z,85.68
2023-03-29T07:34:42.778Z,85.84
2023-03-29T07:35:52.550Z,85.67
2023-03-29T07:36:56.393Z,85.69
2023-03-29T07:37:58.456Z,85.73
2023-03-29T07:39:03.726Z,85.45
2023-03-29T07:40:15.996Z,85.42
2023-03-29T07:41:39.827Z,85.57
2023-03-29T07:42:51.265Z,85.90
2023-03-29T07:43:55.798Z,85.86
2023-03-29T07:44:59.997Z,85.96
2023-03-29T07:46:11.543Z,85.35
2023-03-29T07:47:16.605Z,84.83
2023-03-29T07:48:19.625Z,84.84
2023-03-29T07:49:44.847Z,84.86
2023-03-29T07:50:46.465Z,85.29
2023-03-29T07:51:54.921Z,85.52
2023-03-29T07:52:56.915Z,85.33
2023-03-29T07:53:59.766Z,85.50
2023-03-29T07:55:17.083Z,85.45
2023-03-29T07:56:32.312Z,85.40
2023-03-29T07:58:04.441Z,85.44
2023-03-29T07:59:08.828Z,85.61
2023-03-29T08:00:15.897Z,85.63
2023-03-29T08:01:28.816Z,85.38
2023-03-29T08:02:52.381Z,85.47
2023-03-29T08:03:55.089Z,85.41
2023-03-29T08:05:09.874Z,85.42
2023-03-29T08:06:30.794Z,85.45
2023-03-29T08:07:32.973Z,85.31
2023-03-29T08:08:46.883Z,85.04
2023-03-29T08:09:51.347Z,85.24
2023-03-29T08:10:54.738Z,85.58
2023-03-29T08:12:31.368Z,85.01
2023-03-29T08:13:33.937Z,85.08
2023-03-29T08:15:11.180Z,85.20
2023-03-29T08:16:12.767Z,84.92
2023-03-29T08:17:22.126Z,84.82
2023-03-29T08:18:32.813Z,85.01
2023-03-29T08:19:37.158Z,84.71
2023-03-29T08:20:40.991Z,84.78
2023-03-29T08:21:42.762Z,84.80
2023-03-29T08:22:46.182Z,84.72
2023-03-29T08:24:14.661Z,85.20
2023-03-29T08:25:21.719Z,85.16
2023-03-29T08:26:26.898Z,85.13
2023-03-29T08:27:30.962Z,85.08
2023-03-29T08:28:35.906Z,85.04
2023-03-29T08:29:38.038Z,84.95
2023-03-29T08:30:39.770Z,84.74
2023-03-29T08:31:41.471Z,84.80
2023-03-29T08:32:43.565Z,84.29
2023-03-29T08:33:49.193Z,84.51
2023-03-29T08:35:12.855Z,84.58
2023-03-29T08:36:26.420Z,84.79
2023-03-29T08:37:31.331Z,84.30
2023-03-29T08:38:33.024Z,83.82
2023-03-29T08:39:35.073Z,84.11
2023-03-29T08:40:50.756Z,84.30
2023-03-29T08:41:59.665Z,84.02
2023-03-29T08:43:23.988Z,84.14
2023-03-29T08:45:02.591Z,83.72
2023-03-29T08:46:21.209Z,83.75
2023-03-29T08:47:35.689Z,83.63
2023-03-29T08:48:46.156Z,83.50
2023-03-29T08:50:00.670Z,83.50
2023-03-29T08:51:19.988Z,83.51
2023-03-29T08:52:31.255Z,83.23
2023-03-29T08:53:37.318Z,83.01
2023-03-29T08:54:49.726Z,83.57
2023-03-29T08:56:09.632Z,83.34
2023-03-29T08:57:32.559Z,83.17
2023-03-29T08:58:48.451Z,83.04
2023-03-29T08:59:53.433Z,83.32
2023-03-29T09:00:59.516Z,83.54
2023-03-29T09:02:05.632Z,83.19
2023-03-29T09:03:11.340Z,83.38
2023-03-29T09:04:16.307Z,83.61
2023-03-29T09:05:37.968Z,83.25
2023-03-29T09:06:52.121Z,83.03
2023-03-29T09:07:58.000Z,83.20
2023-03-29T09:09:02.902Z,83.11
2023-03-29T09:10:05.720Z,82.62
2023-03-29T09:11:24.945Z,82.89
2023-03-29T09:12:27.550Z,82.73
2023-03-29T09:13:31.869Z,83.07
2023-03-29T09:14:37.200Z,83.22
2023-03-29T09:16:07.590Z,83.28
2023-03-29T09:17:16.640Z,82.73
2023-03-29T09:18:18.477Z,82.95
2023-03-29T09:19:21.057Z,82.62
2023-03-29T09:21:01.524Z,82.44
2023-03-29T09:22:17.822Z,81.87
2023-03-29T09:23:25.701Z,82.36
2023-03-29T09:24:54.139Z,82.04
2023-03-29T09:26:13.850Z,82.32
2023-03-29T09:27:55.116Z,82.74
2023-03-29T09:29:35.244Z,82.63
2023-03-29T09:30:41.510Z,81.96
2023-03-29T09:31:49.498Z,81.71
2023-03-29T09:32:56.873Z,82.00
2023-03-29T09:34:13.108Z,82.18
2023-03-29T09:35:36.001Z,81.61
2023-03-29T09:36:46.937Z,81.18
2023-03-29T09:37:51.265Z,80.70
2023-03-29T09:38:54.572Z,80.77
2023-03-29T09:39:59.833Z,80.84
2023-03-29T09:41:25.184Z,80.86
2023-03-29T09:42:28.781Z,80.49
2023-03-29T09:50:34.068Z,79.18
2023-03-29T09:51:43.026Z,79.55
2023-03-29T09:52:49.320Z,79.92
2023-03-29T09:53:58.154Z,79.37
2023-03-29T09:55:33.841Z,78.87
2023-03-29T09:56:59.543Z,78.71
2023-03-29T09:58:01.876Z,79.29
2023-03-29T09:59:11.310Z,78.90
2023-03-29T10:00:13.900Z,78.35
2023-03-29T10:01:17.350Z,78.23
2023-03-29T10:02:20.358Z,78.31
2023-03-29T10:03:28.576Z,78.87
2023-03-29T10:04:52.826Z,78.58
2023-03-29T10:05:56.422Z,78.41
2023-03-29T10:06:58.800Z,77.57
2023-03-29T10:08:01.308Z,77.37
2023-03-29T10:09:06.577Z,77.52
2023-03-29T10:10:24.736Z,78.00
2023-03-29T10:11:30.721Z,78.47
2023-03-29T10:12:34.406Z,78.40
2023-03-29T10:13:36.878Z,77.21
2023-03-29T10:14:39.819Z,77.43
2023-03-29T10:15:44.253Z,77.41
2023-03-29T10:16:46.413Z,76.88
2023-03-29T10:17:48.300Z,76.93
2023-03-29T10:18:50.284Z,76.94
2023-03-29T10:20:08.158Z,77.61
2023-03-29T10:21:18.042Z,77.27
2023-03-29T10:22:22.902Z,77.84
2023-03-29T10:23:24.580Z,77.10
2023-03-29T10:24:26.669Z,76.41
2023-03-29T10:25:32.894Z,76.42
2023-03-29T10:26:38.812Z,77.01
2023-03-29T10:27:43.451Z,77.08
2023-03-29T10:28:45.028Z,77.52
2023-03-29T10:29:47.331Z,77.65
2023-03-29T10:30:53.895Z,77.41
2023-03-29T10:31:56.501Z,76.50
2023-03-29T10:32:59.796Z,77.23
2023-03-29T10:34:04.644Z,77.03
2023-03-29T10:35:17.782Z,77.07
2023-03-29T10:36:19.591Z,77.14
2023-03-29T10:37:22.986Z,77.47
2023-03-29T10:38:27.967Z,77.33
2023-03-29T10:39:35.671Z,77.21
2023-03-29T10:40:42.584Z,76.58
2023-03-29T10:41:49.829Z,76.62
2023-03-29T10:42:52.165Z,76.92
2023-03-29T10:43:54.208Z,75.88
2023-03-29T10:44:57.518Z,76.72
2023-03-29T10:46:06.779Z,76.24
2023-03-29T10:47:20.332Z,75.34
2023-03-29T10:48:29.325Z,76.35
2023-03-29T10:49:33.438Z,76.47
2023-03-29T10:50:38.263Z,75.29
2023-03-29T10:51:46.872Z,75.64
2023-03-29T10:52:50.398Z,75.12
2023-03-29T10:53:51.859Z,75.16
2023-03-29T10:54:55.296Z,75.42
2023-03-29T10:56:15.519Z,75.36
2023-03-29T10:57:26.407Z,76.00
2023-03-29T10:58:28.044Z,76.26
2023-03-29T10:59:36.076Z,75.42
2023-03-29T11:00:44.000Z,75.86
2023-03-29T11:01:48.728Z,75.43
2023-03-29T11:03:09.744Z,75.59
2023-03-29T11:04:24.524Z,75.96
2023-03-29T11:05:44.727Z,75.38
2023-03-29T11:06:55.569Z,75.66
2023-03-29T11:08:24.838Z,76.06
2023-03-29T11:09:41.431Z,74.65
2023-03-29T11:11:02.559Z,74.32
2023-03-29T11:12:15.039Z,74.23
2023-03-29T11:13:28.399Z,74.14
2023-03-29T11:14:39.104Z,74.91
2023-03-29T11:15:54.762Z,75.32
2023-03-29T11:17:15.191Z,74.59
2023-03-29T11:18:19.576Z,74.96
2023-03-29T11:19:32.448Z,75.28
2023-03-29T11:20:53.321Z,75.22
2023-03-29T11:21:57.553Z,74.71
2023-03-29T11:23:14.490Z,74.80
2023-03-29T11:24:46.982Z,75.48
2023-03-29T11:25:54.621Z,75.08
2023-03-29T11:26:56.751Z,75.52
2023-03-29T11:28:19.004Z,75.74
2023-03-29T11:29:23.937Z,75.73
2023-03-29T11:30:29.048Z,76.08
2023-03-29T11:31:50.221Z,76.25
2023-03-29T11:32:54.024Z,75.76
2023-03-29T11:33:55.734Z,75.68
2023-03-29T11:35:01.593Z,75.94
2023-03-29T11:36:13.856Z,76.48
2023-03-29T11:37:28.671Z,76.15
2023-03-29T11:38:34.525Z,76.23
2023-03-29T11:40:00.649Z,75.73
2023-03-29T11:41:30.209Z,76.00
2023-03-29T11:42:35.136Z,76.13
2023-03-29T11:43:45.023Z,76.21
2023-03-29T11:44:50.736Z,76.46
2023-03-29T11:46:00.268Z,76.58
2023-03-29T11:47:15.045Z,76.66
2023-03-29T11:48:23.028Z,76.80
2023-03-29T11:49:28.847Z,76.93
2023-03-29T11:50:45.564Z,76.70
2023-03-29T11:51:51.111Z,77.16
2023-03-29T11:52:54.885Z,77.09
2023-03-29T11:53:57.237Z,77.26
2023-03-29T11:55:05.668Z,77.49
2023-03-29T11:56:26.374Z,77.55
2023-03-29T11:57:40.747Z,77.48
2023-03-29T11:58:50.665Z,77.66
2023-03-29T12:00:05.456Z,77.58
2023-03-29T12:01:30.866Z,78.01
2023-03-29T12:02:37.235Z,77.90
2023-03-29T12:03:54.518Z,78.24
2023-03-29T12:05:00.209Z,78.21
2023-03-29T12:06:10.210Z,77.98
2023-03-29T12:07:25.304Z,78.15
2023-03-29T12:08:32.480Z,77.85
2023-03-29T12:10:02.819Z,77.63
2023-03-29T12:11:17.370Z,77.68
2023-03-29T12:12:20.451Z,77.87
2023-03-29T12:13:37.070Z,76.97
2023-03-29T12:15:06.144Z,77.52
2023-03-29T12:16:28.761Z,76.97
2023-03-29T12:17:38.858Z,77.64
2023-03-29T12:18:46.885Z,77.91
2023-03-29T12:20:05.861Z,77.76
2023-03-29T12:21:19.295Z,77.66
2023-03-29T12:22:22.132Z,77.63
2023-03-29T12:23:23.812Z,77.20
2023-03-29T12:24:26.816Z,77.32
2023-03-29T12:25:34.890Z,77.45
2023-03-29T12:26:42.656Z,77.81
2023-03-29T12:27:49.074Z,78.09
2023-03-29T12:29:09.608Z,78.02
2023-03-29T12:30:27.591Z,78.17
2023-03-29T12:31:48.992Z,78.49
2023-03-29T12:32:57.527Z,78.16
2023-03-29T12:34:52.876Z,78.90
2023-03-29T12:36:24.708Z,79.44
2023-03-29T12:38:09.807Z,79.79
2023-03-29T12:39:30.619Z,79.80
2023-03-29T12:41:03.093Z,79.86
2023-03-29T12:42:24.638Z,80.58
2023-03-29T12:43:45.986Z,80.63
2023-03-29T12:45:22.228Z,80.60
2023-03-29T12:46:29.511Z,80.87
2023-03-29T12:47:44.604Z,80.85
2023-03-29T12:48:51.749Z,80.92
2023-03-29T12:50:00.596Z,80.81
2023-03-29T12:51:29.201Z,80.29
2023-03-29T12:52:36.855Z,80.56
2023-03-29T12:53:46.539Z,80.59
2023-03-29T12:54:59.635Z,80.33
2023-03-29T12:56:19.940Z,80.33
2023-03-29T12:57:40.171Z,80.19
2023-03-29T12:58:52.944Z,79.98
2023-03-29T13:00:09.562Z,80.19
2023-03-29T13:01:26.554Z,79.97
2023-03-29T13:02:34.988Z,79.84
2023-03-29T13:03:42.887Z,79.74
2023-03-29T13:04:58.218Z,79.79
2023-03-29T13:06:06.974Z,79.14
2023-03-29T13:07:26.263Z,79.06
2023-03-29T13:08:33.509Z,79.47
2023-03-29T13:09:47.251Z,79.63
2023-03-29T13:10:53.198Z,80.01
2023-03-29T13:11:57.100Z,79.74
2023-03-29T13:13:08.574Z,79.63
2023-03-29T13:14:16.496Z,79.69
2023-03-29T13:15:18.046Z,79.78
2023-03-29T13:16:21.777Z,79.70
2023-03-29T13:17:35.088Z,79.91
2023-03-29T13:18:45.966Z,79.18
2023-03-29T13:19:55.158Z,78.67
2023-03-29T13:21:06.580Z,78.82
2023-03-29T13:22:36.321Z,78.82
2023-03-29T13:24:08.636Z,78.59
2023-03-29T13:25:29.249Z,78.64
2023-03-29T13:26:39.872Z,78.19
2023-03-29T13:27:51.616Z,78.52
2023-03-29T13:29:18.646Z,78.47
2023-03-29T13:30:34.847Z,77.79
2023-03-29T13:31:44.933Z,77.99
2023-03-29T13:32:55.857Z,77.72
2023-03-29T13:34:18.595Z,77.43
2023-03-29T13:35:30.720Z,77.33
2023-03-29T13:36:51.116Z,77.66
2023-03-29T13:38:03.678Z,77.63
2023-03-29T13:39:14.341Z,77.71
2023-03-29T13:40:32.365Z,77.64
2023-03-29T13:41:39.737Z,77.49
2023-03-29T13:42:46.079Z,77.75
2023-03-29T13:43:52.569Z,78.14
2023-03-29T13:45:05.802Z,78.29
2023-03-29T13:46:22.322Z,77.84
2023-03-29T13:47:27.324Z,77.98
2023-03-29T13:48:30.714Z,77.59
2023-03-29T13:49:35.632Z,77.54
2023-03-29T13:50:39.810Z,77.40
2023-03-29T13:51:45.482Z,77.63
2023-03-29T13:53:09.728Z,77.62
2023-03-29T13:54:31.839Z,77.49
2023-03-29T13:55:41.925Z,77.45
2023-03-29T13:57:04.060Z,77.52
2023-03-29T13:58:09.759Z,77.09
2023-03-29T13:59:24.029Z,77.23
2023-03-29T14:00:31.121Z,76.88
2023-03-29T14:01:54.430Z,76.72
2023-03-29T14:02:59.268Z,77.07
2023-03-29T14:04:05.447Z,77.08
2023-03-29T14:05:11.476Z,77.04
2023-03-29T14:06:16.897Z,77.33
2023-03-29T14:07:26.529Z,77.39
2023-03-29T14:08:35.998Z,77.54
2023-03-29T14:09:44.178Z,77.55
2023-03-29T14:10:59.899Z,77.67
2023-03-29T14:12:04.759Z,77.47
2023-03-29T14:13:09.910Z,77.76
2023-03-29T14:14:12.941Z,77.56
2023-03-29T14:15:21.068Z,76.84
2023-03-29T14:16:26.055Z,77.00
2023-03-29T14:17:34.133Z,77.32
2023-03-29T14:18:40.693Z,77.77
2023-03-29T14:19:50.014Z,76.74
2023-03-29T14:20:54.984Z,77.16
2023-03-29T14:21:57.379Z,76.71
2023-03-29T14:22:59.203Z,77.17
2023-03-29T14:24:02.551Z,76.44
2023-03-29T14:25:13.628Z,76.92
2023-03-29T14:26:20.033Z,76.57
2023-03-29T14:27:23.146Z,76.85
2023-03-29T14:28:34.475Z,77.05
2023-03-29T14:29:39.879Z,77.49
2023-03-29T14:30:50.148Z,77.39
2023-03-29T14:31:53.099Z,77.54
2023-03-29T14:32:55.835Z,77.44
2023-03-29T14:33:59.631Z,77.67
2023-03-29T14:35:05.517Z,77.10
2023-03-29T14:36:15.113Z,77.33
2023-03-29T14:37:29.780Z,77.46
2023-03-29T14:38:36.475Z,76.91
2023-03-29T14:39:41.017Z,77.01
2023-03-29T14:40:44.453Z,76.89
2023-03-29T14:41:50.340Z,77.21
2023-03-29T14:42:51.935Z,77.20
2023-03-29T14:43:55.237Z,76.85
2023-03-29T14:45:09.869Z,77.16
2023-03-29T14:46:14.742Z,77.37
2023-03-29T14:47:51.364Z,77.11
2023-03-29T14:49:00.509Z,77.45
2023-03-29T14:50:19.648Z,77.15
2023-03-29T14:51:27.310Z,77.31
2023-03-29T14:52:31.488Z,77.54
2023-03-29T14:53:34.530Z,77.16
2023-03-29T14:54:36.814Z,77.24
2023-03-29T14:55:40.582Z,77.62
2023-03-29T14:56:42.345Z,77.59
2023-03-29T14:57:45.635Z,77.62
2023-03-29T14:58:56.957Z,77.57
2023-03-29T15:00:00.348Z,77.71